sensor_id;sensor_type;location;lat;lon;timestamp;pressure;altitude;pressure_sealevel;temperature;humidity
21902;BME280;11115;46.038;14.612;2024-02-16T00:00:09;98912.03;;;2.76;100.00
21902;BME280;11115;46.038;14.612;2024-02-16T00:02:50;98904.91;;;2.75;100.00
21902;BME280;11115;46.038;14.612;2024-02-16T00:05:21;98907.47;;;2.82;100.00
21902;BME280;11115;46.038;14.612;2024-02-16T00:07:55;98902.00;;;2.65;100.00
21902;BME280;11115;46.038;14.612;2024-02-16T00:10:35;98901.09;;;2.76;100.00
21902;BME280;11115;46.038;14.612;2024-02-16T00:13:13;98843.31;;;2.34;100.00
21902;BME280;11115;46.038;14.612;2024-02-16T00:15:49;98895.97;;;2.63;100.00
21902;BME280;11115;46.038;14.612;2024-02-16T00:18:21;98895.88;;;2.58;100.00
21902;BME280;11115;46.038;14.612;2024-02-16T00:20:52;98898.16;;;2.49;100.00
21902;BME280;11115;46.038;14.612;2024-02-16T00:23:32;98883.78;;;2.37;100.00
21902;BME280;11115;46.038;14.612;2024-02-16T00:26:04;98895.69;;;2.48;100.00
21902;BME280;11115;46.038;14.612;2024-02-16T00:28:43;98885.09;;;2.34;100.00
21902;BME280;11115;46.038;14.612;2024-02-16T00:31:23;98893.38;;;2.39;100.00
21902;BME280;11115;46.038;14.612;2024-02-16T00:33:55;98898.53;;;2.53;100.00
21902;BME280;11115;46.038;14.612;2024-02-16T00:36:24;98863.88;;;2.25;100.00
21902;BME280;11115;46.038;14.612;2024-02-16T00:39:00;98886.16;;;2.50;100.00
21902;BME280;11115;46.038;14.612;2024-02-16T00:41:38;98880.88;;;2.43;100.00
21902;BME280;11115;46.038;14.612;2024-02-16T00:44:06;98886.19;;;2.33;100.00
21902;BME280;11115;46.038;14.612;2024-02-16T00:46:41;98887.09;;;2.39;100.00
21902;BME280;11115;46.038;14.612;2024-02-16T00:49:17;98887.91;;;2.39;100.00
21902;BME280;11115;46.038;14.612;2024-02-16T00:51:58;98880.22;;;2.08;100.00
21902;BME280;11115;46.038;14.612;2024-02-16T00:54:33;98891.97;;;2.08;100.00
21902;BME280;11115;46.038;14.612;2024-02-16T00:57:11;98886.47;;;2.20;100.00
21902;BME280;11115;46.038;14.612;2024-02-16T00:59:48;98878.53;;;2.19;100.00
21902;BME280;11115;46.038;14.612;2024-02-16T01:02:22;98883.56;;;2.27;100.00
21902;BME280;11115;46.038;14.612;2024-02-16T01:05:00;98873.25;;;2.29;100.00
21902;BME280;11115;46.038;14.612;2024-02-16T01:07:40;98879.09;;;2.21;100.00
21902;BME280;11115;46.038;14.612;2024-02-16T01:10:18;98879.09;;;1.92;100.00
21902;BME280;11115;46.038;14.612;2024-02-16T01:12:51;98879.00;;;1.87;100.00
21902;BME280;11115;46.038;14.612;2024-02-16T01:15:36;98892.09;;;1.73;100.00
21902;BME280;11115;46.038;14.612;2024-02-16T01:18:06;98884.03;;;1.78;100.00
21902;BME280;11115;46.038;14.612;2024-02-16T01:20:42;98881.22;;;2.02;100.00
21902;BME280;11115;46.038;14.612;2024-02-16T01:23:16;98876.81;;;2.01;100.00
21902;BME280;11115;46.038;14.612;2024-02-16T01:25:51;98882.28;;;2.01;100.00
21902;BME280;11115;46.038;14.612;2024-02-16T01:28:34;98879.72;;;1.94;100.00
21902;BME280;11115;46.038;14.612;2024-02-16T01:31:11;98858.91;;;1.76;100.00
21902;BME280;11115;46.038;14.612;2024-02-16T01:33:46;98873.88;;;1.91;100.00
21902;BME280;11115;46.038;14.612;2024-02-16T01:36:21;98871.03;;;1.97;100.00
21902;BME280;11115;46.038;14.612;2024-02-16T01:38:51;98864.34;;;1.76;100.00
21902;BME280;11115;46.038;14.612;2024-02-16T01:41:28;98878.88;;;1.94;100.00
21902;BME280;11115;46.038;14.612;2024-02-16T01:44:01;98879.66;;;2.06;100.00
21902;BME280;11115;46.038;14.612;2024-02-16T01:46:35;98880.78;;;1.93;100.00
21902;BME280;11115;46.038;14.612;2024-02-16T01:49:18;98877.75;;;2.06;100.00
21902;BME280;11115;46.038;14.612;2024-02-16T01:51:53;98878.06;;;1.93;100.00
21902;BME280;11115;46.038;14.612;2024-02-16T01:54:27;98882.06;;;1.91;100.00
21902;BME280;11115;46.038;14.612;2024-02-16T01:57:06;98876.53;;;1.86;100.00
21902;BME280;11115;46.038;14.612;2024-02-16T01:59:42;98874.88;;;1.85;100.00
21902;BME280;11115;46.038;14.612;2024-02-16T02:02:19;98800.59;;;1.26;100.00
21902;BME280;11115;46.038;14.612;2024-02-16T02:04:53;98867.22;;;1.70;100.00
21902;BME280;11115;46.038;14.612;2024-02-16T02:07:35;98868.09;;;1.59;100.00
21902;BME280;11115;46.038;14.612;2024-02-16T02:10:10;98868.78;;;1.54;100.00
21902;BME280;11115;46.038;14.612;2024-02-16T02:12:42;98867.84;;;1.60;100.00
21902;BME280;11115;46.038;14.612;2024-02-16T02:15:13;98858.84;;;1.60;100.00
21902;BME280;11115;46.038;14.612;2024-02-16T02:17:43;98849.34;;;1.62;100.00
21902;BME280;11115;46.038;14.612;2024-02-16T02:20:13;98858.91;;;1.76;100.00
21902;BME280;11115;46.038;14.612;2024-02-16T02:22:49;98863.78;;;1.74;100.00
21902;BME280;11115;46.038;14.612;2024-02-16T02:25:35;98857.03;;;1.65;100.00
21902;BME280;11115;46.038;14.612;2024-02-16T02:28:14;98802.69;;;1.47;100.00
21902;BME280;11115;46.038;14.612;2024-02-16T02:31:01;98835.88;;;1.72;100.00
21902;BME280;11115;46.038;14.612;2024-02-16T02:33:32;98851.97;;;1.86;100.00
21902;BME280;11115;46.038;14.612;2024-02-16T02:36:21;98848.94;;;1.70;100.00
21902;BME280;11115;46.038;14.612;2024-02-16T02:38:55;98840.88;;;1.75;100.00
21902;BME280;11115;46.038;14.612;2024-02-16T02:41:29;98844.91;;;1.73;100.00
21902;BME280;11115;46.038;14.612;2024-02-16T02:44:01;98845.31;;;1.53;100.00
21902;BME280;11115;46.038;14.612;2024-02-16T02:46:35;98856.28;;;1.41;100.00
21902;BME280;11115;46.038;14.612;2024-02-16T02:49:15;98782.53;;;0.96;100.00
21902;BME280;11115;46.038;14.612;2024-02-16T02:51:52;98840.53;;;1.32;100.00
21902;BME280;11115;46.038;14.612;2024-02-16T02:54:23;98855.44;;;1.41;100.00
21902;BME280;11115;46.038;14.612;2024-02-16T02:56:58;98853.78;;;1.40;100.00
21902;BME280;11115;46.038;14.612;2024-02-16T02:59:38;98855.78;;;1.44;100.00
21902;BME280;11115;46.038;14.612;2024-02-16T03:02:23;98855.41;;;1.52;100.00
21902;BME280;11115;46.038;14.612;2024-02-16T03:04:56;98850.59;;;1.43;100.00
21902;BME280;11115;46.038;14.612;2024-02-16T03:07:28;98853.91;;;1.45;100.00
21902;BME280;11115;46.038;14.612;2024-02-16T03:10:07;98852.97;;;1.28;100.00
21902;BME280;11115;46.038;14.612;2024-02-16T03:12:55;98847.16;;;1.36;100.00
21902;BME280;11115;46.038;14.612;2024-02-16T03:15:24;98839.22;;;1.34;100.00
21902;BME280;11115;46.038;14.612;2024-02-16T03:17:59;98842.72;;;1.58;100.00
21902;BME280;11115;46.038;14.612;2024-02-16T03:20:36;98851.16;;;1.57;100.00
21902;BME280;11115;46.038;14.612;2024-02-16T03:23:12;98849.91;;;1.36;100.00
21902;BME280;11115;46.038;14.612;2024-02-16T03:25:46;98849.19;;;1.29;100.00
21902;BME280;11115;46.038;14.612;2024-02-16T03:28:28;98833.69;;;1.17;100.00
21902;BME280;11115;46.038;14.612;2024-02-16T03:31:02;98849.66;;;1.14;100.00
21902;BME280;11115;46.038;14.612;2024-02-16T03:33:37;98847.38;;;1.34;100.00
21902;BME280;11115;46.038;14.612;2024-02-16T03:36:15;98850.25;;;1.28;100.00
21902;BME280;11115;46.038;14.612;2024-02-16T03:38:48;98852.78;;;1.17;100.00
21902;BME280;11115;46.038;14.612;2024-02-16T03:41:21;98788.84;;;0.50;100.00
21902;BME280;11115;46.038;14.612;2024-02-16T03:44:00;98863.09;;;0.80;100.00
21902;BME280;11115;46.038;14.612;2024-02-16T03:46:30;98859.78;;;0.78;100.00
21902;BME280;11115;46.038;14.612;2024-02-16T03:49:01;98835.28;;;0.78;100.00
21902;BME280;11115;46.038;14.612;2024-02-16T03:51:34;98856.22;;;0.89;100.00
21902;BME280;11115;46.038;14.612;2024-02-16T03:54:08;98864.50;;;0.95;100.00
21902;BME280;11115;46.038;14.612;2024-02-16T03:56:55;98852.44;;;0.90;100.00
21902;BME280;11115;46.038;14.612;2024-02-16T03:59:29;98867.34;;;1.11;100.00
21902;BME280;11115;46.038;14.612;2024-02-16T04:02:02;98856.56;;;1.05;100.00
21902;BME280;11115;46.038;14.612;2024-02-16T04:04:34;98864.63;;;0.88;100.00
21902;BME280;11115;46.038;14.612;2024-02-16T04:07:17;98862.16;;;0.98;100.00
21902;BME280;11115;46.038;14.612;2024-02-16T04:09:53;98868.78;;;0.90;100.00
21902;BME280;11115;46.038;14.612;2024-02-16T04:12:25;98869.00;;;1.01;100.00
21902;BME280;11115;46.038;14.612;2024-02-16T04:15:06;98869.50;;;0.86;100.00
21902;BME280;11115;46.038;14.612;2024-02-16T04:17:39;98867.38;;;1.00;100.00
21902;BME280;11115;46.038;14.612;2024-02-16T04:20:11;98873.16;;;1.03;100.00
21902;BME280;11115;46.038;14.612;2024-02-16T04:22:43;98867.56;;;1.21;100.00
21902;BME280;11115;46.038;14.612;2024-02-16T04:25:18;98862.47;;;1.13;100.00
21902;BME280;11115;46.038;14.612;2024-02-16T04:27:55;98867.94;;;0.90;100.00
21902;BME280;11115;46.038;14.612;2024-02-16T04:30:28;98863.19;;;1.09;100.00
21902;BME280;11115;46.038;14.612;2024-02-16T04:33:10;98869.50;;;0.98;100.00
21902;BME280;11115;46.038;14.612;2024-02-16T04:35:44;98862.50;;;1.02;100.00
21902;BME280;11115;46.038;14.612;2024-02-16T04:38:27;98861.06;;;0.87;100.00
21902;BME280;11115;46.038;14.612;2024-02-16T04:41:01;98880.16;;;0.87;100.00
21902;BME280;11115;46.038;14.612;2024-02-16T04:43:35;98876.84;;;0.97;100.00
21902;BME280;11115;46.038;14.612;2024-02-16T04:46:14;98887.00;;;0.90;100.00
21902;BME280;11115;46.038;14.612;2024-02-16T04:48:52;98880.13;;;0.76;100.00
21902;BME280;11115;46.038;14.612;2024-02-16T04:51:24;98866.63;;;0.57;100.00
21902;BME280;11115;46.038;14.612;2024-02-16T04:53:54;98879.91;;;0.77;100.00
21902;BME280;11115;46.038;14.612;2024-02-16T04:56:29;98880.84;;;0.83;100.00
21902;BME280;11115;46.038;14.612;2024-02-16T04:59:04;98878.13;;;0.59;100.00
21902;BME280;11115;46.038;14.612;2024-02-16T05:01:39;98871.34;;;0.39;100.00
21902;BME280;11115;46.038;14.612;2024-02-16T05:04:11;98877.03;;;0.49;100.00
21902;BME280;11115;46.038;14.612;2024-02-16T05:06:44;98874.22;;;0.67;100.00
21902;BME280;11115;46.038;14.612;2024-02-16T05:09:15;98874.94;;;0.86;100.00
21902;BME280;11115;46.038;14.612;2024-02-16T05:11:52;98871.59;;;0.49;100.00
21902;BME280;11115;46.038;14.612;2024-02-16T05:14:30;98876.91;;;0.55;100.00
21902;BME280;11115;46.038;14.612;2024-02-16T05:17:03;98844.13;;;0.50;100.00
21902;BME280;11115;46.038;14.612;2024-02-16T05:19:32;98874.69;;;0.76;100.00
21902;BME280;11115;46.038;14.612;2024-02-16T05:22:08;98878.13;;;0.83;100.00
21902;BME280;11115;46.038;14.612;2024-02-16T05:24:45;98875.75;;;0.63;100.00
21902;BME280;11115;46.038;14.612;2024-02-16T05:27:25;98857.03;;;0.55;100.00
21902;BME280;11115;46.038;14.612;2024-02-16T05:30:01;98875.94;;;0.26;100.00
21902;BME280;11115;46.038;14.612;2024-02-16T05:32:39;98873.31;;;0.20;100.00
21902;BME280;11115;46.038;14.612;2024-02-16T05:35:19;98818.28;;;0.18;100.00
21902;BME280;11115;46.038;14.612;2024-02-16T05:37:53;98847.91;;;0.49;100.00
21902;BME280;11115;46.038;14.612;2024-02-16T05:40:26;98862.81;;;0.47;100.00
21902;BME280;11115;46.038;14.612;2024-02-16T05:42:59;98877.63;;;0.51;100.00
21902;BME280;11115;46.038;14.612;2024-02-16T05:45:34;98887.81;;;0.44;100.00
21902;BME280;11115;46.038;14.612;2024-02-16T05:48:04;98878.06;;;0.36;100.00
21902;BME280;11115;46.038;14.612;2024-02-16T05:50:33;98862.19;;;0.33;100.00
21902;BME280;11115;46.038;14.612;2024-02-16T05:53:10;98883.91;;;0.51;100.00
21902;BME280;11115;46.038;14.612;2024-02-16T05:55:44;98875.41;;;0.59;100.00
21902;BME280;11115;46.038;14.612;2024-02-16T05:58:19;98884.34;;;0.37;100.00
21902;BME280;11115;46.038;14.612;2024-02-16T06:00:54;98881.53;;;0.55;100.00
21902;BME280;11115;46.038;14.612;2024-02-16T06:03:29;98881.44;;;0.62;100.00
21902;BME280;11115;46.038;14.612;2024-02-16T06:06:06;98886.19;;;0.66;100.00
21902;BME280;11115;46.038;14.612;2024-02-16T06:08:41;98890.91;;;0.71;100.00
21902;BME280;11115;46.038;14.612;2024-02-16T06:11:12;98890.06;;;0.70;100.00
21902;BME280;11115;46.038;14.612;2024-02-16T06:13:49;98895.41;;;0.77;100.00
21902;BME280;11115;46.038;14.612;2024-02-16T06:16:21;98890.34;;;0.80;100.00
21902;BME280;11115;46.038;14.612;2024-02-16T06:18:57;98904.06;;;0.85;100.00
21902;BME280;11115;46.038;14.612;2024-02-16T06:21:41;98902.88;;;0.81;100.00
21902;BME280;11115;46.038;14.612;2024-02-16T06:24:11;98872.09;;;0.69;100.00
21902;BME280;11115;46.038;14.612;2024-02-16T06:26:53;98903.59;;;0.88;100.00
21902;BME280;11115;46.038;14.612;2024-02-16T06:29:26;98912.72;;;0.94;100.00
21902;BME280;11115;46.038;14.612;2024-02-16T06:31:58;98917.56;;;0.80;100.00
21902;BME280;11115;46.038;14.612;2024-02-16T06:34:35;98914.00;;;0.91;100.00
21902;BME280;11115;46.038;14.612;2024-02-16T06:37:13;98915.56;;;0.87;100.00
21902;BME280;11115;46.038;14.612;2024-02-16T06:39:46;98908.81;;;0.78;100.00
21902;BME280;11115;46.038;14.612;2024-02-16T06:42:16;98916.41;;;1.00;100.00
21902;BME280;11115;46.038;14.612;2024-02-16T06:44:50;98926.09;;;1.07;100.00
21902;BME280;11115;46.038;14.612;2024-02-16T06:47:19;98926.69;;;1.09;100.00
21902;BME280;11115;46.038;14.612;2024-02-16T06:49:56;98905.25;;;0.89;100.00
21902;BME280;11115;46.038;14.612;2024-02-16T06:52:31;98941.03;;;1.05;100.00
21902;BME280;11115;46.038;14.612;2024-02-16T06:55:08;98940.22;;;1.16;100.00
21902;BME280;11115;46.038;14.612;2024-02-16T06:57:41;98943.06;;;1.21;100.00
21902;BME280;11115;46.038;14.612;2024-02-16T07:00:19;98939.50;;;0.97;100.00
21902;BME280;11115;46.038;14.612;2024-02-16T07:02:52;98934.84;;;0.86;100.00
21902;BME280;11115;46.038;14.612;2024-02-16T07:05:22;98951.75;;;0.76;100.00
21902;BME280;11115;46.038;14.612;2024-02-16T07:08:00;98940.91;;;0.88;100.00
21902;BME280;11115;46.038;14.612;2024-02-16T07:10:39;98957.94;;;0.95;100.00
21902;BME280;11115;46.038;14.612;2024-02-16T07:13:11;98949.81;;;1.07;100.00
21902;BME280;11115;46.038;14.612;2024-02-16T07:15:47;98959.84;;;0.83;100.00
21902;BME280;11115;46.038;14.612;2024-02-16T07:18:19;98960.31;;;0.80;100.00
21902;BME280;11115;46.038;14.612;2024-02-16T07:20:55;98958.22;;;1.05;100.00
21902;BME280;11115;46.038;14.612;2024-02-16T07:23:24;98950.97;;;1.11;100.00
21902;BME280;11115;46.038;14.612;2024-02-16T07:25:58;98963.44;;;1.18;100.00
21902;BME280;11115;46.038;14.612;2024-02-16T07:28:34;98952.06;;;1.21;100.00
21902;BME280;11115;46.038;14.612;2024-02-16T07:31:05;98939.38;;;1.27;100.00
21902;BME280;11115;46.038;14.612;2024-02-16T07:33:35;98961.19;;;1.27;100.00
21902;BME280;11115;46.038;14.612;2024-02-16T07:36:10;98959.88;;;1.30;100.00
21902;BME280;11115;46.038;14.612;2024-02-16T07:38:47;98967.44;;;1.51;100.00
21902;BME280;11115;46.038;14.612;2024-02-16T07:41:34;98962.13;;;1.56;100.00
21902;BME280;11115;46.038;14.612;2024-02-16T07:44:07;98963.41;;;1.53;100.00
21902;BME280;11115;46.038;14.612;2024-02-16T07:46:41;98961.78;;;1.41;100.00
21902;BME280;11115;46.038;14.612;2024-02-16T07:49:21;98957.59;;;1.50;100.00
21902;BME280;11115;46.038;14.612;2024-02-16T07:51:55;98949.19;;;1.63;100.00
21902;BME280;11115;46.038;14.612;2024-02-16T07:54:31;98963.50;;;1.82;100.00
21902;BME280;11115;46.038;14.612;2024-02-16T07:57:11;98953.47;;;1.99;100.00
21902;BME280;11115;46.038;14.612;2024-02-16T07:59:56;98950.16;;;1.97;100.00
21902;BME280;11115;46.038;14.612;2024-02-16T08:02:26;98943.41;;;2.00;100.00
21902;BME280;11115;46.038;14.612;2024-02-16T08:05:06;98951.31;;;2.13;100.00
21902;BME280;11115;46.038;14.612;2024-02-16T08:07:43;98927.78;;;2.12;100.00
21902;BME280;11115;46.038;14.612;2024-02-16T08:10:39;98931.88;;;2.26;100.00
21902;BME280;11115;46.038;14.612;2024-02-16T08:13:13;98955.97;;;2.58;100.00
21902;BME280;11115;46.038;14.612;2024-02-16T08:15:44;98955.38;;;2.56;100.00
21902;BME280;11115;46.038;14.612;2024-02-16T08:18:22;98940.44;;;2.75;100.00
21902;BME280;11115;46.038;14.612;2024-02-16T08:21:00;98893.16;;;2.58;100.00
21902;BME280;11115;46.038;14.612;2024-02-16T08:23:37;98946.69;;;3.26;100.00
21902;BME280;11115;46.038;14.612;2024-02-16T08:26:09;98930.47;;;3.36;100.00
21902;BME280;11115;46.038;14.612;2024-02-16T08:28:49;98906.25;;;4.10;100.00
21902;BME280;11115;46.038;14.612;2024-02-16T08:31:18;98948.19;;;5.71;100.00
21902;BME280;11115;46.038;14.612;2024-02-16T08:34:05;98936.69;;;6.47;100.00
21902;BME280;11115;46.038;14.612;2024-02-16T08:36:43;98877.31;;;5.63;100.00
21902;BME280;11115;46.038;14.612;2024-02-16T08:39:23;98939.66;;;4.93;100.00
21902;BME280;11115;46.038;14.612;2024-02-16T08:42:00;98915.22;;;4.28;100.00
21902;BME280;11115;46.038;14.612;2024-02-16T08:44:41;98937.47;;;4.36;100.00
21902;BME280;11115;46.038;14.612;2024-02-16T08:47:17;98933.94;;;4.41;100.00
21902;BME280;11115;46.038;14.612;2024-02-16T08:49:50;98914.13;;;4.29;100.00
21902;BME280;11115;46.038;14.612;2024-02-16T08:52:27;98940.06;;;4.48;100.00
21902;BME280;11115;46.038;14.612;2024-02-16T08:55:05;98927.47;;;4.79;100.00
21902;BME280;11115;46.038;14.612;2024-02-16T08:57:37;98939.91;;;4.86;100.00
21902;BME280;11115;46.038;14.612;2024-02-16T09:00:11;98945.13;;;4.88;100.00
21902;BME280;11115;46.038;14.612;2024-02-16T09:02:56;98940.75;;;4.92;100.00
21902;BME280;11115;46.038;14.612;2024-02-16T09:05:35;98947.16;;;5.03;100.00
21902;BME280;11115;46.038;14.612;2024-02-16T09:08:09;98920.50;;;4.98;100.00
21902;BME280;11115;46.038;14.612;2024-02-16T09:10:47;98928.22;;;5.01;100.00
21902;BME280;11115;46.038;14.612;2024-02-16T09:13:20;98922.81;;;5.11;100.00
21902;BME280;11115;46.038;14.612;2024-02-16T09:16:01;98939.19;;;5.38;100.00
21902;BME280;11115;46.038;14.612;2024-02-16T09:18:33;98940.22;;;5.69;100.00
21902;BME280;11115;46.038;14.612;2024-02-16T09:21:05;98938.78;;;6.09;100.00
21902;BME280;11115;46.038;14.612;2024-02-16T09:23:43;98933.06;;;6.26;100.00
21902;BME280;11115;46.038;14.612;2024-02-16T09:26:15;98933.72;;;6.68;100.00
21902;BME280;11115;46.038;14.612;2024-02-16T09:28:46;98926.03;;;6.86;100.00
21902;BME280;11115;46.038;14.612;2024-02-16T09:31:27;98934.03;;;6.97;100.00
21902;BME280;11115;46.038;14.612;2024-02-16T09:34:03;98926.31;;;7.30;100.00
21902;BME280;11115;46.038;14.612;2024-02-16T09:36:45;98922.72;;;7.29;100.00
21902;BME280;11115;46.038;14.612;2024-02-16T09:39:20;98918.88;;;7.36;100.00
21902;BME280;11115;46.038;14.612;2024-02-16T09:42:04;98919.69;;;7.31;100.00
21902;BME280;11115;46.038;14.612;2024-02-16T09:44:35;98919.66;;;7.61;100.00
21902;BME280;11115;46.038;14.612;2024-02-16T09:47:14;98924.28;;;7.71;100.00
21902;BME280;11115;46.038;14.612;2024-02-16T09:49:48;98921.25;;;7.83;100.00
21902;BME280;11115;46.038;14.612;2024-02-16T09:52:23;98912.94;;;7.88;100.00
21902;BME280;11115;46.038;14.612;2024-02-16T09:54:53;98923.25;;;8.32;100.00
21902;BME280;11115;46.038;14.612;2024-02-16T09:57:26;98899.63;;;8.65;100.00
21902;BME280;11115;46.038;14.612;2024-02-16T10:00:02;98925.25;;;9.09;100.00
21902;BME280;11115;46.038;14.612;2024-02-16T10:02:43;98919.31;;;8.92;100.00
21902;BME280;11115;46.038;14.612;2024-02-16T10:05:22;98861.00;;;8.70;100.00
21902;BME280;11115;46.038;14.612;2024-02-16T10:07:53;98909.50;;;9.10;100.00
21902;BME280;11115;46.038;14.612;2024-02-16T10:10:41;98886.84;;;9.13;100.00
21902;BME280;11115;46.038;14.612;2024-02-16T10:13:15;98901.34;;;9.29;100.00
21902;BME280;11115;46.038;14.612;2024-02-16T10:16:09;98910.50;;;9.53;100.00
21902;BME280;11115;46.038;14.612;2024-02-16T10:18:46;98906.50;;;9.64;100.00
21902;BME280;11115;46.038;14.612;2024-02-16T10:21:34;98895.88;;;9.77;100.00
21902;BME280;11115;46.038;14.612;2024-02-16T10:24:09;98905.09;;;9.67;100.00
21902;BME280;11115;46.038;14.612;2024-02-16T10:26:45;98895.50;;;9.83;100.00
21902;BME280;11115;46.038;14.612;2024-02-16T10:29:35;98892.75;;;10.07;100.00
21902;BME280;11115;46.038;14.612;2024-02-16T10:32:15;98890.38;;;10.43;100.00
21902;BME280;11115;46.038;14.612;2024-02-16T10:34:47;98885.66;;;10.44;100.00
21902;BME280;11115;46.038;14.612;2024-02-16T10:37:21;98890.13;;;10.77;100.00
21902;BME280;11115;46.038;14.612;2024-02-16T10:39:55;98885.63;;;11.00;100.00
21902;BME280;11115;46.038;14.612;2024-02-16T10:42:31;98869.84;;;11.01;100.00
21902;BME280;11115;46.038;14.612;2024-02-16T10:45:06;98878.38;;;11.18;100.00
21902;BME280;11115;46.038;14.612;2024-02-16T10:47:37;98863.06;;;11.39;100.00
21902;BME280;11115;46.038;14.612;2024-02-16T10:50:12;98866.16;;;11.51;100.00
21902;BME280;11115;46.038;14.612;2024-02-16T10:52:49;98866.88;;;11.57;100.00
21902;BME280;11115;46.038;14.612;2024-02-16T10:55:22;98856.47;;;11.81;100.00
21902;BME280;11115;46.038;14.612;2024-02-16T10:58:07;98859.63;;;12.02;100.00
21902;BME280;11115;46.038;14.612;2024-02-16T11:03:43;98839.28;;;12.07;100.00
21902;BME280;11115;46.038;14.612;2024-02-16T11:06:24;98845.84;;;12.25;100.00
21902;BME280;11115;46.038;14.612;2024-02-16T11:09:02;98843.09;;;12.83;100.00
21902;BME280;11115;46.038;14.612;2024-02-16T11:11:52;98839.13;;;13.20;100.00
21902;BME280;11115;46.038;14.612;2024-02-16T11:14:48;98831.78;;;13.24;100.00
21902;BME280;11115;46.038;14.612;2024-02-16T11:17:35;98828.88;;;13.07;100.00
21902;BME280;11115;46.038;14.612;2024-02-16T11:20:12;98827.88;;;13.25;100.00
21902;BME280;11115;46.038;14.612;2024-02-16T11:22:46;98818.72;;;13.25;100.00
21902;BME280;11115;46.038;14.612;2024-02-16T11:25:32;98828.06;;;13.68;100.00
21902;BME280;11115;46.038;14.612;2024-02-16T11:28:02;98820.94;;;13.76;100.00
21902;BME280;11115;46.038;14.612;2024-02-16T11:30:41;98813.28;;;13.90;100.00
21902;BME280;11115;46.038;14.612;2024-02-16T11:33:14;98802.97;;;13.91;100.00
21902;BME280;11115;46.038;14.612;2024-02-16T11:36:04;98793.88;;;14.16;100.00
21902;BME280;11115;46.038;14.612;2024-02-16T11:38:41;98799.22;;;14.04;100.00
21902;BME280;11115;46.038;14.612;2024-02-16T11:41:15;98784.38;;;14.26;100.00
21902;BME280;11115;46.038;14.612;2024-02-16T11:44:01;98792.28;;;14.50;100.00
21902;BME280;11115;46.038;14.612;2024-02-16T11:46:53;98786.88;;;14.71;100.00
21902;BME280;11115;46.038;14.612;2024-02-16T11:49:24;98782.44;;;14.78;100.00
21902;BME280;11115;46.038;14.612;2024-02-16T11:52:05;98779.19;;;14.85;100.00
21902;BME280;11115;46.038;14.612;2024-02-16T11:54:44;98772.75;;;14.93;100.00
21902;BME280;11115;46.038;14.612;2024-02-16T11:57:18;98775.75;;;15.35;100.00
21902;BME280;11115;46.038;14.612;2024-02-16T11:59:47;98765.91;;;15.84;100.00
21902;BME280;11115;46.038;14.612;2024-02-16T12:02:24;98762.72;;;15.56;100.00
21902;BME280;11115;46.038;14.612;2024-02-16T12:05:02;98765.59;;;16.06;100.00
21902;BME280;11115;46.038;14.612;2024-02-16T12:07:40;98757.25;;;16.27;100.00
21902;BME280;11115;46.038;14.612;2024-02-16T12:10:29;98755.13;;;16.24;100.00
21902;BME280;11115;46.038;14.612;2024-02-16T12:13:00;98745.94;;;17.56;100.00
21902;BME280;11115;46.038;14.612;2024-02-16T12:15:37;98743.91;;;18.30;100.00
21902;BME280;11115;46.038;14.612;2024-02-16T12:18:32;98746.63;;;18.66;100.00
21902;BME280;11115;46.038;14.612;2024-02-16T12:21:06;98721.94;;;18.44;100.00
21902;BME280;11115;46.038;14.612;2024-02-16T12:23:45;98742.69;;;18.83;98.56
21902;BME280;11115;46.038;14.612;2024-02-16T12:26:20;98742.50;;;19.20;91.14
21902;BME280;11115;46.038;14.612;2024-02-16T12:29:02;98715.13;;;18.85;95.47
21902;BME280;11115;46.038;14.612;2024-02-16T12:31:38;98729.44;;;19.87;94.21
21902;BME280;11115;46.038;14.612;2024-02-16T12:34:13;98730.09;;;19.99;88.20
21902;BME280;11115;46.038;14.612;2024-02-16T12:36:46;98716.03;;;20.15;83.78
21902;BME280;11115;46.038;14.612;2024-02-16T12:39:21;98728.25;;;21.00;75.65
21902;BME280;11115;46.038;14.612;2024-02-16T12:41:54;98721.09;;;21.45;75.53
21902;BME280;11115;46.038;14.612;2024-02-16T12:44:30;98713.09;;;21.47;72.54
21902;BME280;11115;46.038;14.612;2024-02-16T12:47:03;98719.19;;;23.22;63.33
21902;BME280;11115;46.038;14.612;2024-02-16T12:49:36;98714.66;;;24.02;59.03
21902;BME280;11115;46.038;14.612;2024-02-16T12:52:09;98707.25;;;24.42;57.66
21902;BME280;11115;46.038;14.612;2024-02-16T12:54:46;98714.50;;;24.39;55.38
21902;BME280;11115;46.038;14.612;2024-02-16T12:57:20;98707.63;;;25.66;53.11
21902;BME280;11115;46.038;14.612;2024-02-16T12:59:50;98702.28;;;25.08;51.46
21902;BME280;11115;46.038;14.612;2024-02-16T13:02:21;98684.16;;;25.66;50.93
21902;BME280;11115;46.038;14.612;2024-02-16T13:05:05;98665.13;;;25.56;51.32
21902;BME280;11115;46.038;14.612;2024-02-16T13:07:41;98683.28;;;25.23;46.89
21902;BME280;11115;46.038;14.612;2024-02-16T13:10:20;98690.50;;;24.92;49.64
21902;BME280;11115;46.038;14.612;2024-02-16T13:12:51;98682.91;;;25.14;48.69
21902;BME280;11115;46.038;14.612;2024-02-16T13:15:26;98671.09;;;24.94;49.26
21902;BME280;11115;46.038;14.612;2024-02-16T13:18:05;98689.03;;;25.69;47.80
21902;BME280;11115;46.038;14.612;2024-02-16T13:21:00;98691.97;;;26.92;42.83
21902;BME280;11115;46.038;14.612;2024-02-16T13:23:30;98682.81;;;26.56;43.10
21902;BME280;11115;46.038;14.612;2024-02-16T13:26:19;98682.81;;;27.33;39.32
21902;BME280;11115;46.038;14.612;2024-02-16T13:29:17;98680.03;;;26.31;40.33
21902;BME280;11115;46.038;14.612;2024-02-16T13:32:08;98687.56;;;28.02;37.56
21902;BME280;11115;46.038;14.612;2024-02-16T13:35:02;98684.50;;;29.76;37.65
21902;BME280;11115;46.038;14.612;2024-02-16T13:37:35;98691.47;;;30.21;37.06